Time;durP1;ratioP1;P1;durP2;ratioP2;P2;SDS_P1;SDS_P2;PMS_P1;PMS_P2;Temp;Humidity;BMP_temperature;BMP_pressure;BME280_temperature;BME280_humidity;BME280_pressure;Samples;Min_cycle;Max_cycle;Signal;HPM_P1;HPM_P2
2021/07/10 00:03:01;;;;;;;;;;;13.90;99.90;;;12.63;100.00;96224.97;10491120;28;2124;-82
2021/07/10 00:08:03;;;;;;;;;;;13.90;99.90;;;12.57;100.00;96215.25;10499745;28;2455;-81
2021/07/10 00:13:06;;;;;;;;;;;13.80;99.90;;;12.53;100.00;96214.19;10494011;28;2516;-82
2021/07/10 00:18:09;;;;;;;;;;;13.80;99.90;;;12.52;100.00;96204.50;10507540;28;2454;-83
2021/07/10 00:23:12;;;;;;;;;;;13.80;99.90;;;12.52;100.00;96199.91;10500876;28;2430;-82
2021/07/10 00:28:14;;;;;;;;;;;13.80;99.90;;;12.51;100.00;96201.00;10514403;28;2420;-83
2021/07/10 00:33:17;;;;;;;;;;;13.80;99.90;;;12.48;100.00;96184.56;10522352;28;2578;-83
2021/07/10 00:38:20;;;;;;;;;;;13.70;99.90;;;12.42;100.00;96192.66;10496434;28;2544;-82
2021/07/10 00:43:23;;;;;;;;;;;13.70;99.90;;;12.35;100.00;96181.38;10480913;28;2589;-82
2021/07/10 00:48:25;;;;;;;;;;;13.70;99.90;;;12.31;100.00;96180.31;10491517;28;2334;-82
2021/07/10 00:53:28;;;;;;;;;;;13.60;99.90;;;12.27;100.00;96176.53;10496329;28;2396;-81
2021/07/10 00:58:32;;;;;;;;;;;13.50;99.90;;;12.21;100.00;96164.16;10493260;28;2498;-81
2021/07/10 01:03:37;;;;;;;;;;;13.50;99.90;;;12.20;100.00;96173.31;10500879;28;1842;-82
2021/07/10 01:08:41;;;;;;;;;;;13.40;99.90;;;12.16;100.00;96161.50;10502032;28;2807;-80
2021/07/10 01:13:44;;;;;;;;;;;13.40;99.90;;;12.11;100.00;96159.59;10495360;28;2804;-81
2021/07/10 01:18:47;;;;;;;;;;;13.40;99.90;;;12.14;100.00;96147.47;10497449;28;2379;-82
2021/07/10 01:23:50;;;;;;;;;;;13.30;99.90;;;12.12;100.00;96157.72;10479102;28;2594;-83
2021/07/10 01:28:53;;;;;;;;;;;13.30;99.90;;;12.03;100.00;96153.97;10496225;28;2507;-81
2021/07/10 01:33:56;;;;;;;;;;;13.30;99.90;;;11.97;100.00;96147.00;10496160;28;2132;-83
2021/07/10 01:38:58;;;;;;;;;;;13.20;99.90;;;11.95;100.00;96141.84;10496247;28;2772;-83
2021/07/10 01:44:01;;;;;;;;;;;13.20;99.90;;;11.96;100.00;96129.19;10498276;28;2211;-82
2021/07/10 01:49:04;;;;;;;;;;;13.20;99.90;;;12.13;100.00;96124.28;10496614;28;2443;-80
2021/07/10 01:54:07;;;;;;;;;;;13.20;99.90;;;12.23;100.00;96124.28;10504532;28;2514;-83
2021/07/10 01:59:10;;;;;;;;;;;13.40;99.90;;;12.05;100.00;96114.09;10483486;28;2471;-80
2021/07/10 02:04:15;;;;;;;;;;;13.30;99.90;;;12.04;100.00;96109.78;10494311;28;2515;-82
2021/07/10 02:09:18;;;;;;;;;;;13.30;99.90;;;12.08;100.00;96106.25;10500450;28;2610;-83
2021/07/10 02:14:21;;;;;;;;;;;13.30;99.90;;;12.16;100.00;96104.91;10498441;28;2444;-82
2021/07/10 02:19:23;;;;;;;;;;;13.30;99.90;;;12.12;100.00;96103.81;10498448;28;2521;-81
2021/07/10 02:24:26;;;;;;;;;;;13.30;99.90;;;12.16;100.00;96097.63;10493244;28;2491;-82
2021/07/10 02:29:29;;;;;;;;;;;13.40;99.90;;;12.11;100.00;96099.53;10497557;28;2661;-82
2021/07/10 02:34:32;;;;;;;;;;;13.40;99.90;;;12.01;100.00;96094.97;10475055;28;2564;-82
2021/07/10 02:39:34;;;;;;;;;;;13.30;99.90;;;12.05;100.00;96079.06;10481449;28;2757;-82
2021/07/10 02:44:37;;;;;;;;;;;13.30;99.90;;;12.02;100.00;96069.63;10494764;28;2432;-81
2021/07/10 02:49:40;;;;;;;;;;;13.30;99.90;;;12.02;100.00;96058.03;10475081;28;2526;-82
2021/07/10 02:54:43;;;;;;;;;;;13.20;99.90;;;11.97;100.00;96056.19;10489802;28;2518;-83
2021/07/10 02:59:45;;;;;;;;;;;13.20;99.90;;;11.89;100.00;96060.25;10484282;28;2710;-83
2021/07/10 03:04:48;;;;;;;;;;;13.20;99.90;;;11.86;100.00;96060.00;10501262;28;2424;-82
2021/07/10 03:09:51;;;;;;;;;;;13.10;99.90;;;11.80;100.00;96067.25;10478851;28;2548;-83
2021/07/10 03:14:54;;;;;;;;;;;13.10;99.90;;;11.76;100.00;96060.78;10495522;28;2657;-84
2021/07/10 03:19:57;;;;;;;;;;;13.00;99.90;;;11.73;100.00;96060.53;10490428;28;2521;-82
2021/07/10 03:24:59;;;;;;;;;;;13.00;99.90;;;11.67;100.00;96073.22;10497951;28;2657;-80
2021/07/10 03:30:02;;;;;;;;;;;12.90;99.90;;;11.75;100.00;96074.53;10509461;28;2135;-82
2021/07/10 03:35:05;;;;;;;;;;;12.90;99.90;;;11.87;100.00;96073.19;10505750;28;2167;-83
2021/07/10 03:40:08;;;;;;;;;;;13.00;99.90;;;11.93;100.00;96071.28;10483819;28;2542;-81
2021/07/10 03:45:10;;;;;;;;;;;13.10;99.90;;;11.98;100.00;96067.78;10480914;28;2518;-82
2021/07/10 03:50:13;;;;;;;;;;;13.10;99.90;;;12.14;100.00;96061.22;10491800;28;2532;-83
2021/07/10 03:55:16;;;;;;;;;;;13.20;99.90;;;12.30;100.00;96064.69;10491673;28;2085;-84
2021/07/10 04:00:18;;;;;;;;;;;13.30;99.90;;;12.44;100.00;96058.38;10503555;28;2089;-84
2021/07/10 04:05:21;;;;;;;;;;;13.40;99.90;;;12.62;100.00;96050.75;10485230;28;2132;-82
2021/07/10 04:10:24;;;;;;;;;;;13.60;99.90;;;12.98;100.00;96049.41;10476137;28;2499;-84
2021/07/10 04:15:27;;;;;;;;;;;13.80;99.90;;;13.19;100.00;96046.53;10491112;28;2542;-82
2021/07/10 04:20:44;;;;;;;;;;;14.10;99.90;;;13.48;100.00;96051.97;10488985;28;2728;-84
2021/07/10 04:25:47;;;;;;;;;;;14.30;99.90;;;13.51;100.00;96052.22;10510282;28;2218;-81
2021/07/10 04:30:50;;;;;;;;;;;14.50;99.90;;;13.83;100.00;96050.81;10493821;28;2601;-83
2021/07/10 04:35:53;;;;;;;;;;;14.70;99.90;;;14.13;98.26;96046.94;10525205;28;2510;-83
2021/07/10 04:40:55;;;;;;;;;;;14.90;99.90;;;14.26;95.60;96042.72;10515535;28;2408;-83
2021/07/10 04:45:58;;;;;;;;;;;15.10;99.90;;;14.52;95.76;96044.03;10488327;28;2395;-81
2021/07/10 04:51:01;;;;;;;;;;;15.30;99.90;;;14.99;93.58;96041.44;10488835;28;2479;-83
2021/07/10 04:56:03;;;;;;;;;;;15.60;99.90;;;15.12;90.32;96049.63;10480287;28;2631;-83
2021/07/10 05:01:06;;;;;;;;;;;15.80;99.90;;;15.40;89.17;96041.59;10489645;28;2539;-83
2021/07/10 05:06:09;;;;;;;;;;;16.00;99.90;;;15.62;88.05;96038.25;10496570;28;2586;-83
2021/07/10 05:11:12;;;;;;;;;;;16.30;99.90;;;15.77;86.50;96031.72;10503126;28;2093;-80
2021/07/10 05:16:14;;;;;;;;;;;16.50;99.90;;;15.79;86.56;96037.66;10472946;28;2515;-81
2021/07/10 05:21:17;;;;;;;;;;;16.60;99.90;;;16.41;82.77;96032.59;10487740;28;2216;-82
2021/07/10 05:26:20;;;;;;;;;;;16.80;99.90;;;16.52;82.91;96033.97;10479631;28;2461;-80
2021/07/10 05:31:23;;;;;;;;;;;17.10;99.90;;;16.95;78.19;96042.53;10494381;28;2069;-81
2021/07/10 05:36:27;;;;;;;;;;;17.40;99.90;;;17.14;79.16;96038.84;10516469;28;2541;-82
2021/07/10 05:41:30;;;;;;;;;;;17.70;99.90;;;16.77;80.28;96042.72;10524921;28;2499;-82
2021/07/10 05:46:32;;;;;;;;;;;17.80;99.90;;;16.97;78.72;96044.94;10509159;28;1985;-83
2021/07/10 05:51:36;;;;;;;;;;;17.80;99.90;;;17.21;79.21;96044.66;10496410;28;2453;-82
2021/07/10 05:56:39;;;;;;;;;;;17.90;99.90;;;17.78;77.36;96042.94;10477360;28;2515;-84
2021/07/10 06:01:43;;;;;;;;;;;18.20;99.90;;;17.17;79.24;96058.03;10501502;28;2495;-80
2021/07/10 06:06:45;;;;;;;;;;;18.50;99.90;;;17.13;81.23;96059.78;10508159;28;2431;-81
2021/07/10 06:11:48;;;;;;;;;;;18.10;99.90;;;17.74;78.54;96050.09;10503256;28;2519;-80
2021/07/10 06:16:51;;;;;;;;;;;18.30;99.90;;;17.32;79.66;96061.50;10501543;28;2518;-83
2021/07/10 06:21:54;;;;;;;;;;;18.50;99.90;;;16.90;82.69;96055.44;10490779;28;2478;-82
2021/07/10 06:26:56;;;;;;;;;;;18.20;99.90;;;17.38;81.18;96055.66;10477950;28;2369;-79
2021/07/10 06:31:59;;;;;;;;;;;18.20;99.90;;;18.01;78.13;96051.06;10508194;28;2827;-79
2021/07/10 06:37:02;;;;;;;;;;;18.60;99.90;;;17.76;77.73;96055.25;10512175;28;2167;-82
2021/07/10 06:42:05;;;;;;;;;;;18.90;99.90;;;17.92;77.60;96048.28;10494466;28;2422;-82
2021/07/10 06:47:08;;;;;;;;;;;18.90;99.90;;;18.36;76.37;96060.91;10523852;28;2170;-82
2021/07/10 06:52:10;;;;;;;;;;;19.00;99.90;;;18.86;74.01;96055.09;10524164;28;2332;-83
2021/07/10 06:57:13;;;;;;;;;;;19.40;99.90;;;19.07;73.28;96054.47;10532978;28;2017;-82
2021/07/10 07:02:16;;;;;;;;;;;19.80;99.90;;;18.54;73.70;96060.97;10535709;28;2388;-83
2021/07/10 07:07:19;;;;;;;;;;;19.70;99.90;;;18.77;73.28;96058.97;10516016;28;2246;-82
2021/07/10 07:12:22;;;;;;;;;;;19.60;99.90;;;18.62;72.75;96049.28;10521296;28;2480;-82
2021/07/10 07:17:24;;;;;;;;;;;19.80;99.90;;;19.00;73.43;96044.06;10478523;28;2430;-82
2021/07/10 07:22:27;;;;;;;;;;;19.80;99.90;;;18.73;74.48;96039.72;10506023;28;2333;-79
2021/07/10 07:27:30;;;;;;;;;;;20.00;99.90;;;19.32;70.65;96031.03;10480138;28;2328;-81
2021/07/10 07:32:33;;;;;;;;;;;20.20;99.90;;;19.49;71.77;96032.94;10484370;28;2260;-79
2021/07/10 07:37:36;;;;;;;;;;;20.30;99.90;;;18.99;72.82;96025.31;10484802;28;2400;-81
2021/07/10 07:42:39;;;;;;;;;;;20.30;99.90;;;19.29;72.53;96018.88;10477857;28;2459;-79
2021/07/10 07:47:41;;;;;;;;;;;20.30;99.90;;;18.94;73.49;96018.09;10488611;28;2312;-79
2021/07/10 07:52:44;;;;;;;;;;;20.20;99.90;;;19.49;71.68;96005.69;10493737;28;2368;-80
2021/07/10 07:57:47;;;;;;;;;;;20.20;99.90;;;19.52;71.26;96015.94;10486261;28;2313;-80
2021/07/10 08:02:49;;;;;;;;;;;20.50;99.90;;;19.60;70.79;96006.97;10504465;28;2241;-82
2021/07/10 08:07:53;;;;;;;;;;;20.50;99.90;;;20.40;68.13;96007.88;10503372;28;2336;-79
2021/07/10 08:12:55;;;;;;;;;;;21.00;99.90;;;20.72;66.66;95990.00;10506187;28;2471;-79
2021/07/10 08:17:58;;;;;;;;;;;21.40;99.90;;;20.15;68.82;95995.19;10519671;28;2323;-79
2021/07/10 08:23:01;;;;;;;;;;;21.40;99.90;;;20.39;68.47;95983.66;10512643;28;2501;-79
2021/07/10 08:28:03;;;;;;;;;;;21.40;99.90;;;19.73;71.66;95977.91;10510264;28;2311;-79
2021/07/10 08:33:06;;;;;;;;;;;21.20;99.90;;;20.14;71.03;95977.22;10520057;28;2317;-80
2021/07/10 08:38:09;;;;;;;;;;;21.00;99.90;;;20.71;68.96;95971.25;10499759;28;2423;-80
2021/07/10 08:43:12;;;;;;;;;;;21.40;99.90;;;20.59;68.23;95971.97;10498236;28;2155;-80
2021/07/10 08:48:15;;;;;;;;;;;21.60;99.90;;;20.82;67.10;95964.25;10490238;28;2384;-81
2021/07/10 08:53:17;;;;;;;;;;;21.70;99.90;;;20.96;65.89;95961.22;10497054;28;2241;-81
2021/07/10 08:58:20;;;;;;;;;;;21.80;99.90;;;21.23;65.90;95968.03;10489298;28;2395;-80
2021/07/10 09:03:23;;;;;;;;;;;21.90;99.90;;;21.93;64.82;95962.59;10482271;28;2297;-79
2021/07/10 09:08:27;;;;;;;;;;;22.30;99.90;;;21.70;63.66;95965.00;10493662;28;2304;-81
2021/07/10 09:13:29;;;;;;;;;;;22.50;99.90;;;21.73;63.57;95950.63;10488749;28;2317;-80
2021/07/10 09:18:32;;;;;;;;;;;22.70;99.90;;;22.05;63.65;95946.97;10491377;28;2285;-80
2021/07/10 09:23:38;;;;;;;;;;;22.80;99.90;;;21.58;63.92;95936.47;10486882;28;2292;-83
2021/07/10 09:28:41;;;;;;;;;;;22.70;99.90;;;21.52;62.89;95926.09;10488345;28;2293;-80
2021/07/10 09:33:44;;;;;;;;;;;22.80;99.90;;;21.11;64.57;95933.25;10508173;28;2026;-79
2021/07/10 09:38:52;;;;;;;;;;;22.30;99.90;;;21.69;63.92;95930.53;10488108;28;2710;-81
2021/07/10 09:43:56;;;;;;;;;;;22.60;99.90;;;21.46;65.09;95922.00;10494468;28;2435;-80
2021/07/10 09:48:59;;;;;;;;;;;22.40;99.90;;;21.99;62.81;95917.44;10495242;28;2317;-81
2021/07/10 09:54:01;;;;;;;;;;;22.90;99.90;;;21.70;61.45;95910.28;10496816;28;2323;-79
2021/07/10 09:59:04;;;;;;;;;;;22.70;99.90;;;20.78;65.99;95892.28;10473246;28;2495;-80
2021/07/10 10:04:07;;;;;;;;;;;22.10;99.90;;;21.12;63.67;95893.06;10488739;28;2328;-80
2021/07/10 10:09:10;;;;;;;;;;;22.30;99.90;;;21.54;63.43;95877.31;10474120;28;2733;-80
2021/07/10 10:14:12;;;;;;;;;;;22.30;99.90;;;21.22;62.49;95874.28;10473663;28;2384;-80
2021/07/10 10:19:16;;;;;;;;;;;22.40;99.90;;;22.10;61.15;95872.06;10500315;28;2335;-81
2021/07/10 10:24:18;;;;;;;;;;;22.70;99.90;;;21.44;61.24;95869.56;10485109;28;2528;-80
2021/07/10 10:29:21;;;;;;;;;;;22.80;99.90;;;21.31;62.25;95866.00;10485480;28;2511;-79
2021/07/10 10:34:24;;;;;;;;;;;22.50;99.90;;;21.30;62.18;95864.41;10492312;28;2493;-81
2021/07/10 10:39:26;;;;;;;;;;;22.50;99.90;;;21.76;60.40;95848.72;10493222;28;2487;-79
2021/07/10 10:44:29;;;;;;;;;;;22.70;99.90;;;21.73;60.97;95849.41;10493832;28;2536;-81
2021/07/10 10:49:32;;;;;;;;;;;22.90;99.90;;;22.95;57.10;95835.38;10489956;28;2289;-80
2021/07/10 10:54:34;;;;;;;;;;;24.10;99.90;;;22.73;56.67;95844.16;10533374;28;1907;-81
2021/07/10 10:59:37;;;;;;;;;;;25.00;99.90;;;22.42;56.15;95833.88;10533848;28;2350;-80
2021/07/10 11:04:41;;;;;;;;;;;24.40;99.90;;;23.48;53.46;95827.72;10515418;28;2470;-80
2021/07/10 11:09:44;;;;;;;;;;;24.90;99.90;;;24.54;51.68;95823.03;10496864;28;2282;-80
2021/07/10 11:14:46;;;;;;;;;;;26.10;99.90;;;24.49;51.25;95826.06;10498638;28;2327;-79
2021/07/10 11:19:49;;;;;;;;;;;26.60;99.90;;;22.63;54.59;95823.53;10497798;28;2225;-80
2021/07/10 11:24:52;;;;;;;;;;;25.70;99.90;;;22.78;55.25;95814.56;10507398;28;2229;-79
2021/07/10 11:29:55;;;;;;;;;;;24.60;99.90;;;23.23;54.28;95807.09;10514012;28;2412;-80
2021/07/10 11:34:59;;;;;;;;;;;25.00;99.90;;;23.72;51.39;95800.06;10496296;28;2344;-80
2021/07/10 11:40:05;;;;;;;;;;;25.60;99.90;;;22.91;54.10;95796.13;10495289;28;2286;-80
2021/07/10 11:45:10;;;;;;;;;;;24.80;99.90;;;23.29;52.82;95794.72;10491961;28;2352;-80
2021/07/10 11:50:13;;;;;;;;;;;24.50;99.90;;;22.42;55.16;95785.38;10485521;28;2292;-81
2021/07/10 11:55:15;;;;;;;;;;;24.00;99.90;;;22.12;56.79;95773.97;10493426;28;2392;-79
2021/07/10 12:00:18;;;;;;;;;;;23.60;99.90;;;23.08;54.46;95757.38;10494862;28;2311;-80
2021/07/10 12:05:21;;;;;;;;;;;23.80;99.90;;;23.04;53.74;95745.56;10494102;28;2380;-80
2021/07/10 12:10:24;;;;;;;;;;;24.20;99.90;;;22.67;54.41;95740.28;10482981;28;2526;-81
2021/07/10 12:15:26;;;;;;;;;;;24.00;99.90;;;23.11;53.40;95732.00;10505291;28;2306;-80
2021/07/10 12:20:29;;;;;;;;;;;24.20;99.90;;;22.99;52.72;95739.53;10504729;28;2183;-81
2021/07/10 12:25:32;;;;;;;;;;;24.30;99.90;;;22.76;53.18;95720.13;10483819;28;2363;-79
2021/07/10 12:30:35;;;;;;;;;;;24.30;99.90;;;22.80;53.60;95721.03;10502406;28;2241;-82
2021/07/10 12:35:37;;;;;;;;;;;24.00;99.90;;;22.77;54.02;95725.25;10512195;28;2376;-81
2021/07/10 12:40:41;;;;;;;;;;;23.90;99.90;;;23.06;53.64;95729.53;10494670;28;2408;-80
2021/07/10 12:45:44;;;;;;;;;;;24.00;99.90;;;23.75;51.39;95712.72;10482745;28;2322;-82
2021/07/10 12:50:47;;;;;;;;;;;24.50;99.90;;;23.46;51.92;95707.34;10490377;28;2309;-81
2021/07/10 12:56:00;;;;;;;;;;;24.70;99.90;;;23.45;51.52;95694.78;10494900;28;2241;-82
2021/07/10 13:01:03;;;;;;;;;;;24.70;99.90;;;23.67;51.55;95709.03;10513613;28;2468;-79
2021/07/10 13:06:06;;;;;;;;;;;24.70;99.90;;;23.34;52.66;95712.16;10514533;28;2293;-81
2021/07/10 13:11:09;;;;;;;;;;;24.60;99.90;;;23.81;51.33;95690.09;10476718;28;2396;-81
2021/07/10 13:16:14;;;;;;;;;;;24.80;99.90;;;23.75;50.99;95693.50;10492577;28;2263;-81
2021/07/10 13:21:16;;;;;;;;;;;24.90;99.90;;;23.48;51.85;95687.81;10484938;28;2309;-79
2021/07/10 13:26:20;;;;;;;;;;;24.70;99.90;;;24.17;49.76;95682.56;10494498;28;2222;-80
2021/07/10 13:31:23;;;;;;;;;;;25.00;99.90;;;24.05;49.86;95658.81;10470276;28;2424;-81
2021/07/10 13:36:26;;;;;;;;;;;25.10;99.90;;;23.65;50.93;95664.66;10485097;28;2309;-81
2021/07/10 13:41:29;;;;;;;;;;;25.00;99.90;;;23.85;50.56;95659.97;10495236;28;2464;-81
2021/07/10 13:46:32;;;;;;;;;;;24.80;99.90;;;23.56;50.70;95651.13;10494927;28;2164;-81
2021/07/10 13:51:35;;;;;;;;;;;24.90;99.90;;;23.99;49.70;95641.06;10474070;28;2332;-80
2021/07/10 13:56:38;;;;;;;;;;;24.90;99.90;;;23.87;49.96;95646.69;10483325;28;2206;-82
2021/07/10 14:01:41;;;;;;;;;;;25.10;99.90;;;23.68;50.39;95642.81;10486520;28;2274;-80
2021/07/10 14:06:44;;;;;;;;;;;24.90;99.90;;;23.84;50.19;95630.94;10498462;28;2301;-80
2021/07/10 14:11:46;;;;;;;;;;;24.80;99.90;;;23.87;50.09;95617.28;10499059;28;2415;-83
2021/07/10 14:16:49;;;;;;;;;;;24.90;99.90;;;24.36;49.24;95619.38;10510505;28;2325;-81
2021/07/10 14:21:52;;;;;;;;;;;25.10;99.90;;;23.77;50.02;95614.34;10479347;28;2304;-80
2021/07/10 14:26:54;;;;;;;;;;;25.10;99.90;;;23.90;50.67;95618.50;10485767;28;2245;-81
2021/07/10 14:31:57;;;;;;;;;;;25.00;99.90;;;24.33;49.49;95616.56;10495545;28;2257;-82
2021/07/10 14:37:00;;;;;;;;;;;25.10;99.90;;;23.78;49.61;95618.66;10482067;28;2178;-82
2021/07/10 14:42:03;;;;;;;;;;;25.10;99.90;;;24.17;48.98;95608.41;10476394;28;2510;-79
2021/07/10 14:47:05;;;;;;;;;;;25.10;99.90;;;24.16;48.87;95599.38;10486410;28;2401;-80
2021/07/10 14:52:09;;;;;;;;;;;25.10;99.90;;;24.08;49.30;95600.44;10482693;28;2268;-81
2021/07/10 14:57:12;;;;;;;;;;;25.30;99.90;;;24.19;49.26;95595.13;10494098;28;2349;-81
2021/07/10 15:02:15;;;;;;;;;;;25.30;99.90;;;24.30;48.39;95596.09;10493459;28;2293;-81
2021/07/10 15:07:17;;;;;;;;;;;25.50;99.90;;;24.26;48.80;95587.81;10497729;28;2356;-81
2021/07/10 15:12:20;;;;;;;;;;;25.40;99.90;;;24.05;49.04;95595.69;10492062;28;2462;-80
2021/07/10 15:17:23;;;;;;;;;;;25.30;99.90;;;24.18;48.26;95597.09;10487089;28;2297;-81
2021/07/10 15:22:27;;;;;;;;;;;25.30;99.90;;;24.62;47.26;95588.44;10487052;28;2269;-81
2021/07/10 15:27:30;;;;;;;;;;;25.40;99.90;;;24.38;48.24;95588.81;10469679;28;2284;-80
2021/07/10 15:32:33;;;;;;;;;;;25.40;99.90;;;23.81;49.14;95577.56;10488800;28;2395;-79
2021/07/10 15:37:36;;;;;;;;;;;25.20;99.90;;;24.33;48.15;95578.09;10514627;28;2336;-78
2021/07/10 15:42:39;;;;;;;;;;;25.20;99.90;;;24.52;48.10;95580.81;10512465;28;2503;-82
2021/07/10 15:47:41;;;;;;;;;;;25.50;99.90;;;24.73;47.99;95577.59;10504233;28;2334;-81
2021/07/10 15:52:44;;;;;;;;;;;25.50;99.90;;;24.82;47.00;95574.59;10518907;28;2409;-81
2021/07/10 15:57:47;;;;;;;;;;;25.50;99.90;;;24.40;47.42;95564.50;10510383;28;2499;-81
2021/07/10 16:02:50;;;;;;;;;;;25.60;99.90;;;23.90;48.85;95558.13;10495749;28;2281;-82
2021/07/10 16:07:52;;;;;;;;;;;25.10;99.90;;;23.76;49.18;95546.88;10488347;28;2372;-78
2021/07/10 16:12:55;;;;;;;;;;;25.00;99.90;;;24.02;49.03;95544.22;10492669;28;2325;-81
2021/07/10 16:17:58;;;;;;;;;;;24.90;99.90;;;23.73;49.58;95532.75;10514437;28;2439;-81
2021/07/10 16:23:01;;;;;;;;;;;24.80;99.90;;;23.61;49.59;95530.16;10506695;28;2348;-81
2021/07/10 16:28:05;;;;;;;;;;;24.70;99.90;;;23.60;49.77;95525.81;10523616;28;2265;-79
2021/07/10 16:33:08;;;;;;;;;;;24.50;99.90;;;23.49;50.56;95534.97;10528367;28;2434;-79
2021/07/10 16:38:11;;;;;;;;;;;24.60;99.90;;;23.34;50.85;95529.19;10513973;28;2300;-81
2021/07/10 16:43:13;;;;;;;;;;;24.40;99.90;;;23.17;51.10;95524.94;10515640;28;2337;-80
2021/07/10 16:48:17;;;;;;;;;;;24.30;99.90;;;23.14;51.97;95514.69;10518380;28;2272;-80
2021/07/10 16:53:20;;;;;;;;;;;24.10;99.90;;;23.10;51.45;95519.31;10509348;28;2454;-80
2021/07/10 16:58:23;;;;;;;;;;;24.10;99.90;;;22.94;51.52;95524.06;10512184;28;2404;-82
2021/07/10 17:03:26;;;;;;;;;;;24.00;99.90;;;22.90;52.56;95517.69;10485178;28;2237;-82
2021/07/10 17:08:29;;;;;;;;;;;23.90;99.90;;;22.90;51.53;95517.69;10502748;28;2641;-80
2021/07/10 17:13:32;;;;;;;;;;;23.80;99.90;;;22.66;52.39;95513.25;10512241;28;2362;-79
2021/07/10 17:18:35;;;;;;;;;;;23.70;99.90;;;22.56;52.83;95509.09;10495084;28;2301;-80
2021/07/10 17:23:37;;;;;;;;;;;23.50;99.90;;;22.34;53.39;95516.03;10497403;28;2348;-80
2021/07/10 17:28:40;;;;;;;;;;;23.40;99.90;;;22.22;52.70;95513.41;10514388;28;2744;-81
2021/07/10 17:33:43;;;;;;;;;;;23.30;99.90;;;22.14;53.51;95508.91;10514552;28;2681;-79
2021/07/10 17:38:46;;;;;;;;;;;23.10;99.90;;;22.07;54.37;95509.47;10494643;28;2690;-81
2021/07/10 17:43:48;;;;;;;;;;;23.00;99.90;;;21.99;55.08;95506.91;10491242;28;2351;-81
2021/07/10 17:48:51;;;;;;;;;;;23.00;99.90;;;21.94;55.55;95499.75;10483284;28;2710;-81
2021/07/10 17:53:54;;;;;;;;;;;22.90;99.90;;;21.99;55.68;95512.38;10470747;28;2722;-81
2021/07/10 17:58:57;;;;;;;;;;;22.90;99.90;;;22.02;56.09;95495.28;10491190;28;2479;-78
2021/07/10 18:04:00;;;;;;;;;;;22.90;99.90;;;22.08;55.76;95496.59;10493004;28;2693;-79
2021/07/10 18:09:02;;;;;;;;;;;22.90;99.90;;;22.32;55.61;95504.63;10481309;28;2769;-81
2021/07/10 18:14:05;;;;;;;;;;;23.00;99.90;;;22.48;54.94;95507.34;10481591;28;2726;-80
2021/07/10 18:19:08;;;;;;;;;;;23.20;99.90;;;22.70;54.24;95500.41;10485205;28;2698;-81
2021/07/10 18:24:10;;;;;;;;;;;23.40;99.90;;;22.61;53.99;95505.28;10485613;28;2379;-81
2021/07/10 18:29:13;;;;;;;;;;;23.50;99.90;;;22.35;55.18;95508.63;10507590;28;2463;-79
2021/07/10 18:34:16;;;;;;;;;;;23.20;99.90;;;22.16;55.59;95494.84;10490197;28;2741;-80
2021/07/10 18:39:19;;;;;;;;;;;23.10;99.90;;;21.95;56.54;95500.53;10493283;28;2450;-81
2021/07/10 18:44:21;;;;;;;;;;;23.00;99.90;;;21.86;57.12;95501.53;10495766;28;2772;-81
2021/07/10 18:49:24;;;;;;;;;;;22.90;99.90;;;21.72;57.94;95492.97;10506617;28;2634;-80
2021/07/10 18:54:27;;;;;;;;;;;22.80;99.90;;;21.59;58.63;95500.44;10499019;28;2594;-82
2021/07/10 18:59:30;;;;;;;;;;;22.70;99.90;;;21.41;59.42;95499.16;10479591;28;2843;-80
2021/07/10 19:04:33;;;;;;;;;;;22.50;99.90;;;21.31;60.15;95489.53;10459872;28;2301;-81
2021/07/10 19:09:35;;;;;;;;;;;22.40;99.90;;;21.19;60.72;95507.91;10476062;28;2416;-79
2021/07/10 19:14:38;;;;;;;;;;;22.30;99.90;;;21.14;60.98;95503.47;10493104;28;2328;-79
2021/07/10 19:19:41;;;;;;;;;;;22.20;99.90;;;21.03;61.85;95500.44;10515879;28;2195;-79
2021/07/10 19:24:45;;;;;;;;;;;22.00;99.90;;;20.98;62.31;95503.41;10515000;28;2164;-81
2021/07/10 19:29:47;;;;;;;;;;;22.00;99.90;;;20.92;62.72;95504.78;10510944;28;2705;-78
2021/07/10 19:34:50;;;;;;;;;;;21.90;99.90;;;20.78;63.25;95504.38;10518357;28;2290;-81
2021/07/10 19:39:53;;;;;;;;;;;21.80;99.90;;;20.75;63.50;95505.09;10479166;28;2396;-79
2021/07/10 19:44:56;;;;;;;;;;;21.70;99.90;;;20.69;63.79;95517.38;10497519;28;2384;-81
2021/07/10 19:49:58;;;;;;;;;;;21.70;99.90;;;20.67;64.20;95516.91;10506416;28;2299;-81
2021/07/10 19:55:01;;;;;;;;;;;21.60;99.90;;;20.56;64.63;95524.78;10503922;28;2859;-81
2021/07/10 20:00:04;;;;;;;;;;;21.60;99.90;;;20.50;64.66;95524.22;10491642;28;2328;-81
2021/07/10 20:05:07;;;;;;;;;;;21.50;99.90;;;20.55;64.75;95527.84;10525455;28;2312;-79
2021/07/10 20:10:09;;;;;;;;;;;21.50;99.90;;;20.45;64.99;95521.72;10511062;28;2332;-80
2021/07/10 20:15:12;;;;;;;;;;;21.50;99.90;;;20.39;65.23;95541.38;10493946;28;2372;-80
2021/07/10 20:20:15;;;;;;;;;;;21.40;99.90;;;20.33;65.54;95540.00;10492171;28;2372;-80
2021/07/10 20:25:17;;;;;;;;;;;21.40;99.90;;;20.47;65.48;95538.56;10486129;28;2289;-81
2021/07/10 20:30:20;;;;;;;;;;;21.40;99.90;;;20.44;66.30;95533.75;10497984;28;2423;-81
2021/07/10 20:35:24;;;;;;;;;;;21.40;99.90;;;20.32;67.16;95533.75;10482112;28;2331;-80
2021/07/10 20:40:27;;;;;;;;;;;21.30;99.90;;;20.35;67.06;95511.22;10492759;28;2449;-81
2021/07/10 20:45:30;;;;;;;;;;;21.30;99.90;;;20.46;67.23;95478.84;10486535;28;2543;-80
2021/07/10 20:50:32;;;;;;;;;;;21.30;99.90;;;20.10;74.44;95485.06;10495713;28;2301;-79
2021/07/10 20:55:35;;;;;;;;;;;21.30;99.90;;;19.54;79.01;95536.59;10496018;28;2368;-80
2021/07/10 21:00:39;;;;;;;;;;;20.90;99.90;;;19.18;81.08;95516.22;10496860;28;2408;-80
2021/07/10 21:05:41;;;;;;;;;;;20.50;99.90;;;19.04;80.12;95510.28;10494666;28;2293;-80
2021/07/10 21:10:44;;;;;;;;;;;20.20;99.90;;;18.69;87.46;95515.97;10496140;28;2351;-82
2021/07/10 21:15:47;;;;;;;;;;;19.90;99.90;;;18.36;91.19;95530.25;10493864;28;2300;-81
2021/07/10 21:20:49;;;;;;;;;;;19.60;99.90;;;18.02;95.03;95525.78;10503555;28;2355;-80
2021/07/10 21:25:52;;;;;;;;;;;19.20;99.90;;;17.83;97.73;95515.31;10492402;28;2270;-79
2021/07/10 21:30:55;;;;;;;;;;;19.00;99.90;;;17.68;100.00;95498.69;10483998;28;2257;-82
2021/07/10 21:35:58;;;;;;;;;;;18.80;99.90;;;17.53;100.00;95498.09;10471832;28;2217;-80
2021/07/10 21:41:00;;;;;;;;;;;18.50;99.90;;;17.47;100.00;95523.06;10483493;28;2336;-80
2021/07/10 21:46:03;;;;;;;;;;;18.40;99.90;;;17.40;100.00;95541.78;10480854;28;2280;-79
2021/07/10 21:51:06;;;;;;;;;;;18.40;99.90;;;17.36;100.00;95540.81;10480882;28;2225;-79
2021/07/10 21:56:08;;;;;;;;;;;18.30;99.90;;;17.26;100.00;95548.19;10497881;28;2320;-80
2021/07/10 22:01:11;;;;;;;;;;;18.30;99.90;;;17.12;100.00;95523.13;10497227;28;2470;-80
2021/07/10 22:06:14;;;;;;;;;;;18.10;99.90;;;17.02;100.00;95520.72;10483376;28;2341;-81
2021/07/10 22:11:17;;;;;;;;;;;18.00;99.90;;;17.07;100.00;95523.28;10505842;28;2459;-80
2021/07/10 22:16:40;;;;;;;;;;;18.00;99.90;;;17.07;100.00;95512.41;10487929;28;2360;-81
2021/07/10 22:22:02;;;;;;;;;;;18.00;99.90;;;17.06;100.00;95512.75;10492245;28;2199;-80
2021/07/10 22:27:26;;;;;;;;;;;18.00;99.90;;;17.06;100.00;95516.25;10485804;28;2249;-80
2021/07/10 22:32:29;;;;;;;;;;;18.00;99.90;;;17.05;100.00;95511.94;10495042;28;2377;-79
2021/07/10 22:37:31;;;;;;;;;;;18.00;99.90;;;16.96;100.00;95506.50;10496251;28;2285;-79
2021/07/10 22:42:34;;;;;;;;;;;18.00;99.90;;;16.95;100.00;95525.84;10479893;28;2296;-79
2021/07/10 22:47:37;;;;;;;;;;;17.90;99.90;;;16.88;100.00;95531.75;10491830;28;2263;-81
2021/07/10 22:52:40;;;;;;;;;;;17.90;99.90;;;16.78;100.00;95545.63;10492672;28;2370;-80
2021/07/10 22:57:42;;;;;;;;;;;17.80;99.90;;;16.90;100.00;95561.28;10489820;28;2238;-80
2021/07/10 23:02:46;;;;;;;;;;;17.80;99.90;;;16.90;100.00;95578.38;10483608;28;2361;-81
2021/07/10 23:07:49;;;;;;;;;;;17.80;99.90;;;16.88;100.00;95583.34;10497426;28;2349;-81